sensor_id;sensor_type;location;lat;lon;timestamp;temperature;humidity
21267;DHT22;10791;53.108;18.326;2023-07-29T00:01:09;14.40;99.90
21267;DHT22;10791;53.108;18.326;2023-07-29T00:06:13;14.30;99.90
21267;DHT22;10791;53.108;18.326;2023-07-29T00:11:16;14.30;99.90
21267;DHT22;10791;53.108;18.326;2023-07-29T00:16:19;14.20;99.90
21267;DHT22;10791;53.108;18.326;2023-07-29T00:21:25;14.10;99.90
21267;DHT22;10791;53.108;18.326;2023-07-29T00:26:28;14.00;99.90
21267;DHT22;10791;53.108;18.326;2023-07-29T00:31:35;13.90;99.90
21267;DHT22;10791;53.108;18.326;2023-07-29T00:36:39;13.90;99.90
21267;DHT22;10791;53.108;18.326;2023-07-29T00:41:42;13.80;99.90
21267;DHT22;10791;53.108;18.326;2023-07-29T00:46:46;13.80;99.90
21267;DHT22;10791;53.108;18.326;2023-07-29T00:51:51;13.80;99.90
21267;DHT22;10791;53.108;18.326;2023-07-29T00:56:54;13.80;99.90
21267;DHT22;10791;53.108;18.326;2023-07-29T01:01:57;13.70;99.90
21267;DHT22;10791;53.108;18.326;2023-07-29T01:13:05;13.60;99.90
21267;DHT22;10791;53.108;18.326;2023-07-29T01:18:15;13.50;99.90
21267;DHT22;10791;53.108;18.326;2023-07-29T01:23:32;13.40;99.90
21267;DHT22;10791;53.108;18.326;2023-07-29T01:28:35;13.40;99.90
21267;DHT22;10791;53.108;18.326;2023-07-29T01:33:42;13.30;99.90
21267;DHT22;10791;53.108;18.326;2023-07-29T01:38:50;13.30;99.90
21267;DHT22;10791;53.108;18.326;2023-07-29T01:43:55;13.10;99.90
21267;DHT22;10791;53.108;18.326;2023-07-29T01:48:59;12.90;99.90
21267;DHT22;10791;53.108;18.326;2023-07-29T01:54:02;12.70;99.90
21267;DHT22;10791;53.108;18.326;2023-07-29T01:59:06;12.60;99.90
21267;DHT22;10791;53.108;18.326;2023-07-29T02:04:10;12.60;99.90
21267;DHT22;10791;53.108;18.326;2023-07-29T02:09:13;12.70;99.90
21267;DHT22;10791;53.108;18.326;2023-07-29T02:14:16;12.60;99.90
21267;DHT22;10791;53.108;18.326;2023-07-29T02:19:20;12.60;99.90
21267;DHT22;10791;53.108;18.326;2023-07-29T02:24:23;12.60;99.90
21267;DHT22;10791;53.108;18.326;2023-07-29T02:29:27;12.60;99.90
21267;DHT22;10791;53.108;18.326;2023-07-29T02:34:30;12.50;99.90
21267;DHT22;10791;53.108;18.326;2023-07-29T02:39:34;12.40;99.90
21267;DHT22;10791;53.108;18.326;2023-07-29T02:44:38;12.40;99.90
21267;DHT22;10791;53.108;18.326;2023-07-29T02:49:41;12.30;99.90
21267;DHT22;10791;53.108;18.326;2023-07-29T02:54:45;12.30;99.90
21267;DHT22;10791;53.108;18.326;2023-07-29T02:59:48;12.30;99.90
21267;DHT22;10791;53.108;18.326;2023-07-29T03:04:52;12.30;99.90
21267;DHT22;10791;53.108;18.326;2023-07-29T03:09:55;12.30;99.90
21267;DHT22;10791;53.108;18.326;2023-07-29T03:14:59;12.30;99.90
21267;DHT22;10791;53.108;18.326;2023-07-29T03:20:04;12.30;99.90
21267;DHT22;10791;53.108;18.326;2023-07-29T03:25:07;12.20;99.90
21267;DHT22;10791;53.108;18.326;2023-07-29T03:30:11;12.10;99.90
21267;DHT22;10791;53.108;18.326;2023-07-29T03:35:15;12.10;99.90
21267;DHT22;10791;53.108;18.326;2023-07-29T03:40:18;12.20;99.90
21267;DHT22;10791;53.108;18.326;2023-07-29T03:45:21;12.30;99.90
21267;DHT22;10791;53.108;18.326;2023-07-29T03:50:25;12.30;99.90
21267;DHT22;10791;53.108;18.326;2023-07-29T03:55:28;12.50;99.90
21267;DHT22;10791;53.108;18.326;2023-07-29T04:00:35;12.40;99.90
21267;DHT22;10791;53.108;18.326;2023-07-29T04:05:38;12.50;99.90
21267;DHT22;10791;53.108;18.326;2023-07-29T04:10:41;12.60;99.90
21267;DHT22;10791;53.108;18.326;2023-07-29T04:15:45;12.80;99.90
21267;DHT22;10791;53.108;18.326;2023-07-29T04:20:48;12.80;99.90
21267;DHT22;10791;53.108;18.326;2023-07-29T04:25:51;12.80;99.90
21267;DHT22;10791;53.108;18.326;2023-07-29T04:30:55;13.10;99.90
21267;DHT22;10791;53.108;18.326;2023-07-29T04:35:58;13.30;99.90
21267;DHT22;10791;53.108;18.326;2023-07-29T04:41:02;13.50;99.90
21267;DHT22;10791;53.108;18.326;2023-07-29T04:46:08;13.60;99.90
21267;DHT22;10791;53.108;18.326;2023-07-29T04:51:12;13.70;99.90
21267;DHT22;10791;53.108;18.326;2023-07-29T04:56:15;13.80;99.90
21267;DHT22;10791;53.108;18.326;2023-07-29T05:01:20;14.10;99.90
21267;DHT22;10791;53.108;18.326;2023-07-29T05:06:23;14.20;99.90
21267;DHT22;10791;53.108;18.326;2023-07-29T05:11:27;14.50;99.90
21267;DHT22;10791;53.108;18.326;2023-07-29T05:16:30;14.90;99.90
21267;DHT22;10791;53.108;18.326;2023-07-29T05:21:33;15.10;99.90
21267;DHT22;10791;53.108;18.326;2023-07-29T05:26:37;15.30;99.90
21267;DHT22;10791;53.108;18.326;2023-07-29T05:31:41;15.30;99.90
21267;DHT22;10791;53.108;18.326;2023-07-29T05:36:44;15.40;99.90
21267;DHT22;10791;53.108;18.326;2023-07-29T05:41:48;15.60;99.90
21267;DHT22;10791;53.108;18.326;2023-07-29T05:46:51;15.70;99.90
21267;DHT22;10791;53.108;18.326;2023-07-29T05:51:54;15.50;99.90
21267;DHT22;10791;53.108;18.326;2023-07-29T05:56:57;15.60;99.90
21267;DHT22;10791;53.108;18.326;2023-07-29T06:02:00;15.70;99.90
21267;DHT22;10791;53.108;18.326;2023-07-29T06:07:05;16.00;99.90
21267;DHT22;10791;53.108;18.326;2023-07-29T06:12:09;16.10;99.90
21267;DHT22;10791;53.108;18.326;2023-07-29T06:17:16;16.10;99.90
21267;DHT22;10791;53.108;18.326;2023-07-29T06:22:19;16.20;99.90
21267;DHT22;10791;53.108;18.326;2023-07-29T06:27:24;16.60;99.90
21267;DHT22;10791;53.108;18.326;2023-07-29T06:32:28;16.80;99.90
21267;DHT22;10791;53.108;18.326;2023-07-29T06:37:32;17.20;99.90
21267;DHT22;10791;53.108;18.326;2023-07-29T06:42:36;17.60;99.90
21267;DHT22;10791;53.108;18.326;2023-07-29T06:47:40;17.80;99.90
21267;DHT22;10791;53.108;18.326;2023-07-29T06:52:44;18.20;99.90
21267;DHT22;10791;53.108;18.326;2023-07-29T06:57:48;18.60;99.90
21267;DHT22;10791;53.108;18.326;2023-07-29T07:02:51;19.00;99.90
21267;DHT22;10791;53.108;18.326;2023-07-29T07:07:55;19.40;99.90
21267;DHT22;10791;53.108;18.326;2023-07-29T07:12:58;19.80;99.90
21267;DHT22;10791;53.108;18.326;2023-07-29T07:18:01;20.20;99.90
21267;DHT22;10791;53.108;18.326;2023-07-29T07:23:05;20.60;99.90
21267;DHT22;10791;53.108;18.326;2023-07-29T07:28:09;21.00;99.90
21267;DHT22;10791;53.108;18.326;2023-07-29T07:33:12;21.20;99.90
21267;DHT22;10791;53.108;18.326;2023-07-29T07:38:16;21.50;99.90
21267;DHT22;10791;53.108;18.326;2023-07-29T07:43:19;21.70;99.90
21267;DHT22;10791;53.108;18.326;2023-07-29T07:48:22;22.00;99.90
21267;DHT22;10791;53.108;18.326;2023-07-29T07:53:26;22.30;99.90
21267;DHT22;10791;53.108;18.326;2023-07-29T07:58:29;22.50;99.90
21267;DHT22;10791;53.108;18.326;2023-07-29T08:03:33;22.60;99.90
21267;DHT22;10791;53.108;18.326;2023-07-29T08:08:36;22.90;99.90
21267;DHT22;10791;53.108;18.326;2023-07-29T08:13:40;23.00;99.90
21267;DHT22;10791;53.108;18.326;2023-07-29T08:18:43;23.30;99.90
21267;DHT22;10791;53.108;18.326;2023-07-29T08:23:47;23.50;99.90
21267;DHT22;10791;53.108;18.326;2023-07-29T08:28:50;23.70;99.90
21267;DHT22;10791;53.108;18.326;2023-07-29T08:33:56;23.90;99.90
21267;DHT22;10791;53.108;18.326;2023-07-29T08:39:00;24.10;99.90
21267;DHT22;10791;53.108;18.326;2023-07-29T08:44:16;24.40;99.90
21267;DHT22;10791;53.108;18.326;2023-07-29T08:49:22;24.60;99.90
21267;DHT22;10791;53.108;18.326;2023-07-29T08:54:29;24.80;99.90
21267;DHT22;10791;53.108;18.326;2023-07-29T08:59:33;25.10;99.90
21267;DHT22;10791;53.108;18.326;2023-07-29T09:04:36;25.40;99.10
21267;DHT22;10791;53.108;18.326;2023-07-29T09:09:39;25.60;97.70
21267;DHT22;10791;53.108;18.326;2023-07-29T09:14:43;25.70;95.30
21267;DHT22;10791;53.108;18.326;2023-07-29T09:19:50;25.90;96.10
21267;DHT22;10791;53.108;18.326;2023-07-29T09:24:56;25.80;95.90
21267;DHT22;10791;53.108;18.326;2023-07-29T09:30:00;26.00;94.70
21267;DHT22;10791;53.108;18.326;2023-07-29T09:35:10;26.30;94.30
21267;DHT22;10791;53.108;18.326;2023-07-29T09:40:14;26.40;91.20
21267;DHT22;10791;53.108;18.326;2023-07-29T09:45:25;26.40;90.60
21267;DHT22;10791;53.108;18.326;2023-07-29T09:50:29;26.70;89.00
21267;DHT22;10791;53.108;18.326;2023-07-29T09:55:34;26.80;91.00
21267;DHT22;10791;53.108;18.326;2023-07-29T10:00:37;27.10;90.00
21267;DHT22;10791;53.108;18.326;2023-07-29T10:05:42;27.10;85.90
21267;DHT22;10791;53.108;18.326;2023-07-29T10:10:46;27.10;82.50
21267;DHT22;10791;53.108;18.326;2023-07-29T10:15:50;27.30;83.10
21267;DHT22;10791;53.108;18.326;2023-07-29T10:20:54;27.40;82.60
21267;DHT22;10791;53.108;18.326;2023-07-29T10:26:04;27.60;83.70
21267;DHT22;10791;53.108;18.326;2023-07-29T10:31:08;27.70;80.50
21267;DHT22;10791;53.108;18.326;2023-07-29T10:36:12;27.60;82.80
21267;DHT22;10791;53.108;18.326;2023-07-29T10:41:15;27.60;78.50
21267;DHT22;10791;53.108;18.326;2023-07-29T10:46:20;27.60;80.60
21267;DHT22;10791;53.108;18.326;2023-07-29T10:56:41;27.90;79.50
21267;DHT22;10791;53.108;18.326;2023-07-29T11:01:54;27.90;76.30
21267;DHT22;10791;53.108;18.326;2023-07-29T11:17:41;28.40;73.00
21267;DHT22;10791;53.108;18.326;2023-07-29T11:22:45;28.50;74.60
21267;DHT22;10791;53.108;18.326;2023-07-29T11:27:50;28.40;72.70
21267;DHT22;10791;53.108;18.326;2023-07-29T11:32:55;28.40;73.80
21267;DHT22;10791;53.108;18.326;2023-07-29T11:37:58;28.50;70.70
21267;DHT22;10791;53.108;18.326;2023-07-29T11:43:02;28.20;72.50
21267;DHT22;10791;53.108;18.326;2023-07-29T11:48:06;28.40;72.50
21267;DHT22;10791;53.108;18.326;2023-07-29T11:53:11;28.70;70.30
21267;DHT22;10791;53.108;18.326;2023-07-29T11:58:20;28.90;71.60
21267;DHT22;10791;53.108;18.326;2023-07-29T12:03:23;28.90;68.40
21267;DHT22;10791;53.108;18.326;2023-07-29T12:08:27;28.50;70.30
21267;DHT22;10791;53.108;18.326;2023-07-29T12:13:31;28.30;72.60
21267;DHT22;10791;53.108;18.326;2023-07-29T12:18:35;28.60;76.90
21267;DHT22;10791;53.108;18.326;2023-07-29T12:23:41;28.90;76.50
21267;DHT22;10791;53.108;18.326;2023-07-29T12:28:46;28.60;72.80
21267;DHT22;10791;53.108;18.326;2023-07-29T12:33:56;28.80;73.90
21267;DHT22;10791;53.108;18.326;2023-07-29T12:38:59;29.10;71.10
21267;DHT22;10791;53.108;18.326;2023-07-29T12:44:03;29.20;69.80
21267;DHT22;10791;53.108;18.326;2023-07-29T12:49:06;29.30;70.40
21267;DHT22;10791;53.108;18.326;2023-07-29T12:54:09;29.10;71.70
21267;DHT22;10791;53.108;18.326;2023-07-29T12:59:16;29.10;70.80
21267;DHT22;10791;53.108;18.326;2023-07-29T13:04:20;29.10;72.00
21267;DHT22;10791;53.108;18.326;2023-07-29T13:09:26;29.20;71.40
21267;DHT22;10791;53.108;18.326;2023-07-29T13:14:29;29.20;69.50
21267;DHT22;10791;53.108;18.326;2023-07-29T13:19:33;28.90;71.60
21267;DHT22;10791;53.108;18.326;2023-07-29T13:24:36;28.60;72.40
21267;DHT22;10791;53.108;18.326;2023-07-29T13:29:39;28.70;75.20
21267;DHT22;10791;53.108;18.326;2023-07-29T13:34:43;28.70;71.30
21267;DHT22;10791;53.108;18.326;2023-07-29T13:39:46;28.80;73.10
21267;DHT22;10791;53.108;18.326;2023-07-29T13:44:53;28.90;74.10
21267;DHT22;10791;53.108;18.326;2023-07-29T13:49:57;29.30;72.60
21267;DHT22;10791;53.108;18.326;2023-07-29T13:55:00;29.50;69.40
21267;DHT22;10791;53.108;18.326;2023-07-29T14:00:04;29.50;70.60
21267;DHT22;10791;53.108;18.326;2023-07-29T14:05:08;29.20;69.80
21267;DHT22;10791;53.108;18.326;2023-07-29T14:10:11;29.10;70.30
21267;DHT22;10791;53.108;18.326;2023-07-29T14:15:15;29.00;69.80
21267;DHT22;10791;53.108;18.326;2023-07-29T14:20:19;29.10;72.00
21267;DHT22;10791;53.108;18.326;2023-07-29T14:25:24;29.50;70.10
21267;DHT22;10791;53.108;18.326;2023-07-29T14:30:28;30.10;70.20
21267;DHT22;10791;53.108;18.326;2023-07-29T14:35:32;30.40;67.20
21267;DHT22;10791;53.108;18.326;2023-07-29T14:40:35;30.10;67.10
21267;DHT22;10791;53.108;18.326;2023-07-29T14:45:38;29.90;68.50
21267;DHT22;10791;53.108;18.326;2023-07-29T14:50:42;29.90;67.30
21267;DHT22;10791;53.108;18.326;2023-07-29T14:55:46;29.80;68.40
21267;DHT22;10791;53.108;18.326;2023-07-29T15:00:49;29.90;68.20
21267;DHT22;10791;53.108;18.326;2023-07-29T15:05:53;29.60;67.40
21267;DHT22;10791;53.108;18.326;2023-07-29T15:10:56;29.50;68.50
21267;DHT22;10791;53.108;18.326;2023-07-29T15:16:00;29.10;68.00
21267;DHT22;10791;53.108;18.326;2023-07-29T15:21:03;28.70;70.90
21267;DHT22;10791;53.108;18.326;2023-07-29T15:26:07;28.40;71.30
21267;DHT22;10791;53.108;18.326;2023-07-29T15:31:13;28.10;71.20
21267;DHT22;10791;53.108;18.326;2023-07-29T15:36:17;27.80;72.20
21267;DHT22;10791;53.108;18.326;2023-07-29T15:41:20;27.60;74.00
21267;DHT22;10791;53.108;18.326;2023-07-29T15:46:24;27.50;74.60
21267;DHT22;10791;53.108;18.326;2023-07-29T15:51:27;27.30;75.20
21267;DHT22;10791;53.108;18.326;2023-07-29T15:56:31;27.20;76.20
21267;DHT22;10791;53.108;18.326;2023-07-29T16:01:34;27.10;76.70
21267;DHT22;10791;53.108;18.326;2023-07-29T16:06:38;26.90;77.60
21267;DHT22;10791;53.108;18.326;2023-07-29T16:11:42;26.70;79.50
21267;DHT22;10791;53.108;18.326;2023-07-29T16:16:45;26.50;81.50
21267;DHT22;10791;53.108;18.326;2023-07-29T16:21:49;26.10;90.40
21267;DHT22;10791;53.108;18.326;2023-07-29T16:26:53;23.60;99.90
21267;DHT22;10791;53.108;18.326;2023-07-29T16:31:57;20.80;99.90
21267;DHT22;10791;53.108;18.326;2023-07-29T16:37:01;19.40;99.90
21267;DHT22;10791;53.108;18.326;2023-07-29T16:42:05;18.80;99.90
21267;DHT22;10791;53.108;18.326;2023-07-29T16:47:09;18.50;99.90
21267;DHT22;10791;53.108;18.326;2023-07-29T16:52:12;18.40;99.90
21267;DHT22;10791;53.108;18.326;2023-07-29T16:57:16;18.30;99.90
21267;DHT22;10791;53.108;18.326;2023-07-29T17:02:19;18.40;99.90
21267;DHT22;10791;53.108;18.326;2023-07-29T17:07:22;18.40;99.90
21267;DHT22;10791;53.108;18.326;2023-07-29T17:12:26;18.40;99.90
21267;DHT22;10791;53.108;18.326;2023-07-29T17:17:29;18.40;99.90
21267;DHT22;10791;53.108;18.326;2023-07-29T17:22:33;18.40;99.90
21267;DHT22;10791;53.108;18.326;2023-07-29T17:27:38;18.40;99.90
21267;DHT22;10791;53.108;18.326;2023-07-29T17:32:42;18.40;99.90
21267;DHT22;10791;53.108;18.326;2023-07-29T17:37:46;18.40;99.90
21267;DHT22;10791;53.108;18.326;2023-07-29T17:42:50;18.40;99.90
21267;DHT22;10791;53.108;18.326;2023-07-29T17:47:53;18.60;99.90
21267;DHT22;10791;53.108;18.326;2023-07-29T17:52:57;18.60;99.90
21267;DHT22;10791;53.108;18.326;2023-07-29T17:58:01;18.60;99.90
21267;DHT22;10791;53.108;18.326;2023-07-29T18:03:04;18.50;99.90
21267;DHT22;10791;53.108;18.326;2023-07-29T18:08:08;18.50;99.90
21267;DHT22;10791;53.108;18.326;2023-07-29T18:13:12;18.20;99.90
21267;DHT22;10791;53.108;18.326;2023-07-29T18:18:16;18.10;99.90
21267;DHT22;10791;53.108;18.326;2023-07-29T18:23:21;18.00;99.90
21267;DHT22;10791;53.108;18.326;2023-07-29T18:28:26;18.00;99.90
21267;DHT22;10791;53.108;18.326;2023-07-29T18:33:30;17.90;99.90
21267;DHT22;10791;53.108;18.326;2023-07-29T18:38:37;17.90;99.90
21267;DHT22;10791;53.108;18.326;2023-07-29T18:43:40;17.80;99.90
21267;DHT22;10791;53.108;18.326;2023-07-29T18:48:46;17.80;99.90
21267;DHT22;10791;53.108;18.326;2023-07-29T18:53:52;17.70;99.90
21267;DHT22;10791;53.108;18.326;2023-07-29T18:58:55;17.70;99.90
21267;DHT22;10791;53.108;18.326;2023-07-29T19:03:59;17.60;99.90
21267;DHT22;10791;53.108;18.326;2023-07-29T19:09:03;17.60;99.90
21267;DHT22;10791;53.108;18.326;2023-07-29T19:14:08;17.60;99.90
21267;DHT22;10791;53.108;18.326;2023-07-29T19:19:12;17.60;99.90
21267;DHT22;10791;53.108;18.326;2023-07-29T19:24:16;17.60;99.90
21267;DHT22;10791;53.108;18.326;2023-07-29T19:29:20;17.60;99.90
21267;DHT22;10791;53.108;18.326;2023-07-29T19:34:24;17.60;99.90
21267;DHT22;10791;53.108;18.326;2023-07-29T19:39:27;17.60;99.90
21267;DHT22;10791;53.108;18.326;2023-07-29T19:44:31;17.60;99.90
21267;DHT22;10791;53.108;18.326;2023-07-29T19:49:37;17.70;99.90
21267;DHT22;10791;53.108;18.326;2023-07-29T19:54:41;17.60;99.90
21267;DHT22;10791;53.108;18.326;2023-07-29T19:59:49;17.60;99.90
21267;DHT22;10791;53.108;18.326;2023-07-29T20:04:53;17.60;99.90
21267;DHT22;10791;53.108;18.326;2023-07-29T20:10:00;17.50;99.90
21267;DHT22;10791;53.108;18.326;2023-07-29T20:15:04;17.50;99.90
21267;DHT22;10791;53.108;18.326;2023-07-29T20:20:10;17.40;99.90
21267;DHT22;10791;53.108;18.326;2023-07-29T20:25:14;17.50;99.90
21267;DHT22;10791;53.108;18.326;2023-07-29T20:30:17;17.40;99.90
21267;DHT22;10791;53.108;18.326;2023-07-29T20:35:21;17.40;99.90
21267;DHT22;10791;53.108;18.326;2023-07-29T20:40:26;17.40;99.90
21267;DHT22;10791;53.108;18.326;2023-07-29T20:45:31;17.40;99.90
21267;DHT22;10791;53.108;18.326;2023-07-29T20:50:38;17.40;99.90
21267;DHT22;10791;53.108;18.326;2023-07-29T20:55:45;17.30;99.90
21267;DHT22;10791;53.108;18.326;2023-07-29T21:00:53;17.30;99.90
21267;DHT22;10791;53.108;18.326;2023-07-29T21:05:57;17.30;99.90
21267;DHT22;10791;53.108;18.326;2023-07-29T21:11:01;17.20;99.90
21267;DHT22;10791;53.108;18.326;2023-07-29T21:16:04;17.20;99.90
21267;DHT22;10791;53.108;18.326;2023-07-29T21:21:08;17.10;99.90
21267;DHT22;10791;53.108;18.326;2023-07-29T21:26:14;17.10;99.90
21267;DHT22;10791;53.108;18.326;2023-07-29T21:31:17;17.00;99.90
21267;DHT22;10791;53.108;18.326;2023-07-29T21:36:21;17.00;99.90
21267;DHT22;10791;53.108;18.326;2023-07-29T21:41:25;17.00;99.90
21267;DHT22;10791;53.108;18.326;2023-07-29T21:46:28;17.00;99.90
21267;DHT22;10791;53.108;18.326;2023-07-29T21:51:32;16.90;99.90
21267;DHT22;10791;53.108;18.326;2023-07-29T21:56:35;16.90;99.90
21267;DHT22;10791;53.108;18.326;2023-07-29T22:01:38;16.80;99.90
21267;DHT22;10791;53.108;18.326;2023-07-29T22:06:42;16.80;99.90
21267;DHT22;10791;53.108;18.326;2023-07-29T22:11:45;16.80;99.90
21267;DHT22;10791;53.108;18.326;2023-07-29T22:16:49;16.90;99.90
21267;DHT22;10791;53.108;18.326;2023-07-29T22:21:53;16.90;99.90
21267;DHT22;10791;53.108;18.326;2023-07-29T22:26:56;16.90;99.90
21267;DHT22;10791;53.108;18.326;2023-07-29T22:32:00;17.00;99.90
21267;DHT22;10791;53.108;18.326;2023-07-29T22:37:03;17.00;99.90
21267;DHT22;10791;53.108;18.326;2023-07-29T22:42:11;17.00;99.90
21267;DHT22;10791;53.108;18.326;2023-07-29T22:47:14;17.00;99.90
21267;DHT22;10791;53.108;18.326;2023-07-29T22:52:18;17.00;99.90
21267;DHT22;10791;53.108;18.326;2023-07-29T22:57:21;17.10;99.90
21267;DHT22;10791;53.108;18.326;2023-07-29T23:02:24;17.10;99.90
21267;DHT22;10791;53.108;18.326;2023-07-29T23:07:28;17.10;99.90
21267;DHT22;10791;53.108;18.326;2023-07-29T23:12:32;17.10;99.90
21267;DHT22;10791;53.108;18.326;2023-07-29T23:17:35;17.10;99.90
21267;DHT22;10791;53.108;18.326;2023-07-29T23:22:39;17.10;99.90
21267;DHT22;10791;53.108;18.326;2023-07-29T23:27:43;17.10;99.90
21267;DHT22;10791;53.108;18.326;2023-07-29T23:32:47;17.10;99.90
21267;DHT22;10791;53.108;18.326;2023-07-29T23:37:51;17.10;99.90
21267;DHT22;10791;53.108;18.326;2023-07-29T23:42:54;17.10;99.90
21267;DHT22;10791;53.108;18.326;2023-07-29T23:47:57;17.10;99.90
21267;DHT22;10791;53.108;18.326;2023-07-29T23:53:01;17.10;99.90
21267;DHT22;10791;53.108;18.326;2023-07-29T23:58:05;17.10;99.90
